createdAt,value
2022-08-18T00:01:58.150Z,99.90
2022-08-18T00:04:36.154Z,99.90
2022-08-18T00:07:12.907Z,99.90
2022-08-18T00:09:41.221Z,99.00
2022-08-18T00:12:17.777Z,99.60
2022-08-18T00:14:45.515Z,99.40
2022-08-18T00:17:13.135Z,99.80
2022-08-18T00:19:45.600Z,99.50
2022-08-18T00:22:18.352Z,98.60
2022-08-18T00:24:47.472Z,98.80
2022-08-18T00:27:28.136Z,98.80
2022-08-18T00:30:00.491Z,98.50
2022-08-18T00:32:33.502Z,98.60
2022-08-18T00:35:16.224Z,99.00
2022-08-18T00:37:44.141Z,98.60
2022-08-18T00:40:17.157Z,99.00
2022-08-18T00:42:48.758Z,99.10
2022-08-18T00:45:23.060Z,99.80
2022-08-18T00:47:49.922Z,99.90
2022-08-18T00:50:23.800Z,99.90
2022-08-18T00:52:58.193Z,99.90
2022-08-18T00:55:27.812Z,99.90
2022-08-18T00:58:01.720Z,99.90
2022-08-18T01:00:28.831Z,99.90
2022-08-18T01:02:59.910Z,99.90
2022-08-18T01:05:56.134Z,99.90
2022-08-18T01:08:29.114Z,99.90
2022-08-18T01:10:57.908Z,99.90
2022-08-18T01:13:30.688Z,99.90
2022-08-18T01:15:57.791Z,99.90
2022-08-18T01:18:42.849Z,99.90
2022-08-18T01:21:41.133Z,99.90
2022-08-18T01:24:10.170Z,99.90
2022-08-18T01:26:45.658Z,99.90
2022-08-18T01:29:18.983Z,99.90
2022-08-18T01:31:55.427Z,99.90
2022-08-18T01:34:25.595Z,99.90
2022-08-18T01:36:53.533Z,99.90
2022-08-18T01:41:23.719Z,99.90
2022-08-18T01:42:08.398Z,99.90
2022-08-18T01:44:35.174Z,99.90
2022-08-18T01:47:01.851Z,99.90
2022-08-18T01:49:28.816Z,99.90
2022-08-18T01:51:55.693Z,99.90
2022-08-18T01:54:23.560Z,99.90
2022-08-18T01:56:50.725Z,99.90
2022-08-18T01:59:17.451Z,99.90
2022-08-18T02:01:50.713Z,99.90
2022-08-18T02:04:35.560Z,99.90
2022-08-18T02:07:07.220Z,99.90
2022-08-18T02:09:34.621Z,99.90
2022-08-18T02:12:01.739Z,99.90
2022-08-18T02:14:31.198Z,99.90
2022-08-18T02:17:01.918Z,99.90
2022-08-18T02:19:40.838Z,99.90
2022-08-18T02:22:09.595Z,99.90
2022-08-18T02:24:37.130Z,99.90
2022-08-18T02:27:05.258Z,99.90
2022-08-18T02:29:32.529Z,99.90
2022-08-18T02:31:59.399Z,99.90
2022-08-18T02:34:26.319Z,99.90
2022-08-18T02:36:53.075Z,99.90
2022-08-18T02:39:20.405Z,99.90
2022-08-18T02:41:47.602Z,99.90
2022-08-18T02:44:14.361Z,99.90
2022-08-18T02:46:41.159Z,99.90
2022-08-18T02:49:08.264Z,99.90
2022-08-18T02:51:35.158Z,99.90
2022-08-18T02:54:02.199Z,99.90
2022-08-18T02:56:40.303Z,99.90
2022-08-18T02:59:11.136Z,99.90
2022-08-18T03:01:42.917Z,99.90
2022-08-18T03:04:28.201Z,99.90
2022-08-18T03:06:57.471Z,99.90
2022-08-18T03:09:24.306Z,99.90
2022-08-18T03:11:51.856Z,99.90
2022-08-18T03:14:18.506Z,99.90
2022-08-18T03:16:54.590Z,99.90
2022-08-18T03:19:28.271Z,99.90
2022-08-18T03:21:59.393Z,99.90
2022-08-18T03:24:29.721Z,99.90
2022-08-18T03:26:57.217Z,99.90
2022-08-18T03:29:27.891Z,99.90
2022-08-18T03:31:58.963Z,99.90
2022-08-18T03:34:25.827Z,99.90
2022-08-18T03:36:52.576Z,99.90
2022-08-18T03:39:20.110Z,99.90
2022-08-18T03:41:58.241Z,99.90
2022-08-18T03:44:27.766Z,99.90
2022-08-18T03:46:54.453Z,99.90
2022-08-18T03:49:21.123Z,99.90
2022-08-18T03:51:48.616Z,99.90
2022-08-18T03:54:18.098Z,99.90
2022-08-18T03:56:47.150Z,99.90
2022-08-18T03:59:19.609Z,99.90
2022-08-18T04:01:48.228Z,99.90
2022-08-18T04:04:19.108Z,99.90
2022-08-18T04:06:53.854Z,99.90
2022-08-18T04:09:22.433Z,99.90
2022-08-18T04:11:49.611Z,99.90
2022-08-18T04:14:18.941Z,99.90
2022-08-18T04:16:46.600Z,99.90
2022-08-18T04:19:14.134Z,99.90
2022-08-18T04:21:53.837Z,99.90
2022-08-18T04:24:21.167Z,99.90
2022-08-18T04:26:49.015Z,99.90
2022-08-18T04:29:19.622Z,99.90
2022-08-18T04:31:46.745Z,99.90
2022-08-18T04:34:14.558Z,99.90
2022-08-18T04:36:42.688Z,99.90
2022-08-18T04:39:11.171Z,99.90
2022-08-18T04:41:39.463Z,99.90
2022-08-18T04:44:08.726Z,99.90
2022-08-18T04:46:37.601Z,99.90
2022-08-18T04:49:04.330Z,99.90
2022-08-18T04:52:22.499Z,99.90
2022-08-18T04:54:17.763Z,99.90
2022-08-18T04:56:44.470Z,99.90
2022-08-18T04:59:13.600Z,99.90
2022-08-18T05:01:45.935Z,99.90
2022-08-18T05:04:14.782Z,99.90
2022-08-18T05:06:43.418Z,99.90
2022-08-18T05:09:13.164Z,99.90
2022-08-18T05:11:44.390Z,99.90
2022-08-18T05:14:11.901Z,99.90
2022-08-18T05:16:48.246Z,99.90
2022-08-18T05:19:23.217Z,99.90
2022-08-18T05:21:59.904Z,99.90
2022-08-18T05:24:34.128Z,99.90
2022-08-18T05:27:05.470Z,99.90
2022-08-18T05:29:45.673Z,99.90
2022-08-18T05:32:46.332Z,99.90
2022-08-18T05:35:37.838Z,99.90
2022-08-18T05:38:16.585Z,99.90
2022-08-18T05:40:46.037Z,99.90
2022-08-18T05:43:15.150Z,99.90
2022-08-18T05:45:42.608Z,99.90
2022-08-18T05:48:09.416Z,99.90
2022-08-18T05:50:37.813Z,99.90
2022-08-18T05:53:13.246Z,99.90
2022-08-18T05:56:01.921Z,99.90
2022-08-18T05:58:37.418Z,99.90
2022-08-18T06:01:11.521Z,99.90
2022-08-18T06:03:48.974Z,99.90
2022-08-18T06:06:20.437Z,99.90
2022-08-18T06:09:19.496Z,99.90
2022-08-18T06:11:47.186Z,99.90
2022-08-18T06:14:13.885Z,99.90
2022-08-18T06:17:10.172Z,99.90
2022-08-18T06:19:45.698Z,99.90
2022-08-18T06:22:36.236Z,99.90
2022-08-18T06:25:29.344Z,99.90
2022-08-18T06:28:08.073Z,99.90
2022-08-18T06:30:52.883Z,99.90
2022-08-18T06:33:46.143Z,99.90
2022-08-18T06:36:30.896Z,99.90
2022-08-18T06:39:19.931Z,99.90
2022-08-18T06:41:49.408Z,99.90
2022-08-18T06:44:40.529Z,99.90
2022-08-18T06:47:42.664Z,99.90
2022-08-18T06:50:28.960Z,99.90
2022-08-18T06:53:02.147Z,99.90
2022-08-18T06:55:43.535Z,99.90
2022-08-18T06:58:13.540Z,99.90
2022-08-18T07:00:56.071Z,99.90
2022-08-18T07:03:40.111Z,99.90
2022-08-18T07:06:21.110Z,99.90
2022-08-18T07:08:49.462Z,99.90
2022-08-18T07:11:31.269Z,99.90
2022-08-18T07:14:21.332Z,99.90
2022-08-18T07:16:58.702Z,99.90
2022-08-18T07:19:30.217Z,99.90
2022-08-18T07:22:14.579Z,99.90
2022-08-18T07:24:43.378Z,99.90
2022-08-18T07:27:17.550Z,99.90
2022-08-18T07:30:05.878Z,99.90
2022-08-18T07:32:39.748Z,99.90
2022-08-18T07:35:09.405Z,99.90
2022-08-18T07:37:48.246Z,99.90
2022-08-18T07:40:45.117Z,99.90
2022-08-18T07:43:38.114Z,99.90
2022-08-18T07:46:38.033Z,99.90
2022-08-18T07:49:07.044Z,99.90
2022-08-18T07:51:53.242Z,99.90
2022-08-18T07:54:47.809Z,99.90
2022-08-18T07:57:35.423Z,99.90
2022-08-18T08:00:55.341Z,99.90
2022-08-18T08:06:11.757Z,99.90
2022-08-18T08:09:23.191Z,99.90
2022-08-18T08:12:04.759Z,99.90
2022-08-18T08:14:40.318Z,99.90
2022-08-18T08:17:28.592Z,99.90
2022-08-18T08:20:21.474Z,99.90
2022-08-18T08:23:24.155Z,99.90
2022-08-18T08:26:18.882Z,99.90
2022-08-18T08:29:30.342Z,99.90
2022-08-18T08:32:06.271Z,99.90
2022-08-18T08:34:48.165Z,99.90
2022-08-18T08:37:33.155Z,99.90
2022-08-18T08:40:08.937Z,99.90
2022-08-18T08:42:50.713Z,99.90
2022-08-18T08:45:50.778Z,99.90
2022-08-18T08:48:25.092Z,99.90
2022-08-18T08:50:55.708Z,99.90
2022-08-18T08:53:25.730Z,99.90
2022-08-18T08:56:02.684Z,99.90
2022-08-18T08:58:54.400Z,99.90
2022-08-18T09:01:31.806Z,99.90
2022-08-18T09:04:21.215Z,99.90
2022-08-18T09:07:06.759Z,99.90
2022-08-18T09:09:42.573Z,99.90
2022-08-18T09:12:25.064Z,99.90
2022-08-18T09:15:16.599Z,99.90
2022-08-18T09:18:08.098Z,99.90
2022-08-18T09:20:56.001Z,99.90
2022-08-18T09:23:25.121Z,99.90
2022-08-18T09:26:00.383Z,99.90
2022-08-18T09:28:29.912Z,99.90
2022-08-18T09:31:03.142Z,99.90
2022-08-18T09:33:40.452Z,99.90
2022-08-18T09:36:13.563Z,99.30
2022-08-18T09:39:27.713Z,99.50
2022-08-18T09:42:05.837Z,99.20
2022-08-18T09:44:47.687Z,96.90
2022-08-18T09:47:34.958Z,97.00
2022-08-18T09:50:05.493Z,95.50
2022-08-18T09:52:37.425Z,95.60
2022-08-18T09:55:27.396Z,95.10
2022-08-18T09:58:40.123Z,94.80
2022-08-18T10:01:22.128Z,94.60
2022-08-18T10:04:14.584Z,94.40
2022-08-18T10:06:48.339Z,94.30
2022-08-18T10:09:36.876Z,94.40
2022-08-18T10:12:23.341Z,94.40
2022-08-18T10:15:33.039Z,94.10
2022-08-18T10:18:22.631Z,94.20
2022-08-18T10:21:08.207Z,95.00
2022-08-18T10:23:49.505Z,94.50
2022-08-18T10:26:31.255Z,94.30
2022-08-18T10:29:04.252Z,94.10
2022-08-18T10:31:55.871Z,94.40
2022-08-18T10:34:51.689Z,93.80
2022-08-18T10:37:21.784Z,93.60
2022-08-18T10:40:01.435Z,93.70
2022-08-18T10:42:55.079Z,94.60
2022-08-18T10:46:25.233Z,91.90
2022-08-18T10:49:21.491Z,92.00
2022-08-18T10:52:00.183Z,90.80
2022-08-18T10:58:18.833Z,90.20
2022-08-18T11:01:12.058Z,90.10
2022-08-18T11:04:01.090Z,90.40
2022-08-18T11:06:47.502Z,90.30
2022-08-18T11:09:26.851Z,89.90
2022-08-18T11:12:01.307Z,88.30
2022-08-18T11:14:41.791Z,88.40
2022-08-18T11:17:24.288Z,88.70
2022-08-18T11:19:54.566Z,89.80
2022-08-18T11:22:34.416Z,90.70
2022-08-18T11:25:17.345Z,89.10
2022-08-18T11:27:48.347Z,89.30
2022-08-18T11:30:17.236Z,87.70
2022-08-18T11:32:51.637Z,88.70
2022-08-18T11:35:33.367Z,86.20
2022-08-18T11:38:12.505Z,85.30
2022-08-18T11:43:40.856Z,90.10
2022-08-18T11:49:26.765Z,86.90
2022-08-18T11:52:03.096Z,86.80
2022-08-18T11:54:50.775Z,84.50
2022-08-18T11:57:46.315Z,83.70
2022-08-18T12:00:45.779Z,83.40
2022-08-18T12:03:30.683Z,83.20
2022-08-18T12:06:27.021Z,82.90
2022-08-18T12:12:01.246Z,82.80
2022-08-18T12:14:35.206Z,82.00
2022-08-18T12:17:02.670Z,83.90
2022-08-18T12:19:34.326Z,82.80
2022-08-18T12:22:10.977Z,82.30
2022-08-18T12:24:39.407Z,81.80
2022-08-18T12:27:20.884Z,83.20
2022-08-18T12:29:53.313Z,83.60
2022-08-18T12:32:55.991Z,82.20
2022-08-18T12:35:11.605Z,82.10
2022-08-18T12:37:58.949Z,80.20
2022-08-18T12:40:26.805Z,81.50
2022-08-18T12:42:55.838Z,83.20
2022-08-18T12:45:24.732Z,81.40
2022-08-18T12:47:51.775Z,80.70
2022-08-18T12:50:19.918Z,79.50
2022-08-18T12:52:46.945Z,79.80
2022-08-18T12:55:21.738Z,77.90
2022-08-18T13:00:36.853Z,80.00
2022-08-18T13:03:04.217Z,78.80
2022-08-18T13:05:31.135Z,78.50
2022-08-18T13:08:04.183Z,77.20
2022-08-18T13:10:45.077Z,78.20
2022-08-18T13:13:14.646Z,77.00
2022-08-18T13:15:55.449Z,77.00
2022-08-18T13:18:27.438Z,79.70
2022-08-18T13:20:59.357Z,75.70
2022-08-18T13:23:30.624Z,75.00
2022-08-18T13:26:02.339Z,75.00
2022-08-18T13:28:35.659Z,74.60
2022-08-18T13:31:05.483Z,77.10
2022-08-18T13:33:34.790Z,75.40
2022-08-18T13:36:20.091Z,75.60
2022-08-18T13:38:54.501Z,74.60
2022-08-18T13:43:52.301Z,73.30
2022-08-18T13:46:24.315Z,74.00
2022-08-18T13:49:03.266Z,73.20
2022-08-18T13:51:31.216Z,73.70
2022-08-18T13:54:17.804Z,74.30
2022-08-18T13:56:52.151Z,74.20
2022-08-18T13:59:21.644Z,73.90
2022-08-18T14:01:52.876Z,75.10
2022-08-18T14:04:22.667Z,72.10
2022-08-18T14:06:56.722Z,74.50
2022-08-18T14:09:27.688Z,71.30
2022-08-18T14:12:21.509Z,73.50
2022-08-18T14:14:55.107Z,74.10
2022-08-18T14:17:24.381Z,73.00
2022-08-18T14:20:21.112Z,72.20
2022-08-18T14:23:12.692Z,71.90
2022-08-18T14:26:00.004Z,72.20
2022-08-18T14:28:28.353Z,71.70
2022-08-18T14:30:57.203Z,72.30
2022-08-18T14:33:34.253Z,71.20
2022-08-18T14:36:14.280Z,70.10
2022-08-18T14:38:41.950Z,70.50
2022-08-18T14:41:13.273Z,68.90
2022-08-18T14:43:55.613Z,69.50
2022-08-18T14:46:30.521Z,71.30
2022-08-18T14:49:00.001Z,70.80
2022-08-18T14:51:31.901Z,70.60
2022-08-18T14:54:01.165Z,72.30
2022-08-18T14:56:29.746Z,69.60
2022-08-18T14:59:07.609Z,69.30
2022-08-18T15:01:42.841Z,68.90
2022-08-18T15:04:18.777Z,69.80
2022-08-18T15:06:56.171Z,68.70
2022-08-18T15:09:26.954Z,68.50
2022-08-18T15:11:56.237Z,67.70
2022-08-18T15:14:26.597Z,68.60
2022-08-18T15:17:13.461Z,69.20
2022-08-18T15:20:00.310Z,70.20
2022-08-18T15:22:47.888Z,70.00
2022-08-18T15:25:33.551Z,69.00
2022-08-18T15:28:00.524Z,69.20
2022-08-18T15:30:28.449Z,68.10
2022-08-18T15:32:55.601Z,68.50
2022-08-18T15:35:22.514Z,68.80
2022-08-18T15:37:51.338Z,68.00
2022-08-18T15:40:31.212Z,68.00
2022-08-18T15:43:10.067Z,67.30
2022-08-18T15:45:43.415Z,67.30
2022-08-18T15:48:24.880Z,67.70
2022-08-18T15:50:52.597Z,68.40
2022-08-18T15:53:23.543Z,68.30
2022-08-18T15:55:50.555Z,68.30
2022-08-18T15:58:18.266Z,67.40
2022-08-18T16:00:50.519Z,66.90
2022-08-18T16:03:17.970Z,67.80
2022-08-18T16:05:53.596Z,67.90
2022-08-18T16:08:25.516Z,67.80
2022-08-18T16:10:53.542Z,68.10
2022-08-18T16:13:20.813Z,68.10
2022-08-18T16:15:50.008Z,68.20
2022-08-18T16:18:19.030Z,67.10
2022-08-18T16:20:45.888Z,67.00
2022-08-18T16:23:13.586Z,67.50
2022-08-18T16:25:44.149Z,66.50
2022-08-18T16:28:14.169Z,67.70
2022-08-18T16:30:41.143Z,67.90
2022-08-18T16:33:08.363Z,68.10
2022-08-18T16:35:37.248Z,68.00
2022-08-18T16:38:09.251Z,67.70
2022-08-18T16:40:36.817Z,68.60
2022-08-18T16:43:04.860Z,68.00
2022-08-18T16:45:33.697Z,67.70
2022-08-18T16:48:00.644Z,67.70
2022-08-18T16:50:27.981Z,68.10
2022-08-18T16:52:54.934Z,68.50
2022-08-18T16:55:21.826Z,68.80
2022-08-18T16:58:12.441Z,69.00
2022-08-18T17:01:00.589Z,68.20
2022-08-18T17:03:46.065Z,69.20
2022-08-18T17:06:16.628Z,69.70
2022-08-18T17:08:44.748Z,69.40
2022-08-18T17:11:15.077Z,69.40
2022-08-18T17:13:42.645Z,69.00
2022-08-18T17:16:10.006Z,69.50
2022-08-18T17:18:37.204Z,70.00
2022-08-18T17:21:07.191Z,69.40
2022-08-18T17:23:34.509Z,69.50
2022-08-18T17:26:09.613Z,69.60
2022-08-18T17:28:50.770Z,70.30
2022-08-18T17:31:24.399Z,71.00
2022-08-18T17:33:55.441Z,72.10
2022-08-18T17:36:31.520Z,72.50
2022-08-18T17:39:04.176Z,74.30
2022-08-18T17:41:30.933Z,74.80
2022-08-18T17:44:00.905Z,75.40
2022-08-18T17:46:38.121Z,76.00
2022-08-18T17:49:13.149Z,76.70
2022-08-18T17:51:48.935Z,76.90
2022-08-18T17:54:23.426Z,77.50
2022-08-18T17:56:53.720Z,78.10
2022-08-18T17:59:51.188Z,78.40
2022-08-18T18:02:29.208Z,78.60
2022-08-18T18:05:02.517Z,79.00
2022-08-18T18:07:43.181Z,79.40
2022-08-18T18:10:17.382Z,79.70
2022-08-18T18:12:44.086Z,80.10
2022-08-18T18:15:13.502Z,80.30
2022-08-18T18:17:42.950Z,80.70
2022-08-18T18:20:40.571Z,81.10
2022-08-18T18:23:17.744Z,81.40
2022-08-18T18:25:44.535Z,81.30
2022-08-18T18:28:33.353Z,81.30
2022-08-18T18:31:17.801Z,81.40
2022-08-18T18:33:45.822Z,81.60
2022-08-18T18:36:30.377Z,81.40
2022-08-18T18:39:34.057Z,81.90
2022-08-18T18:42:34.456Z,82.20
2022-08-18T18:45:05.633Z,82.60
2022-08-18T18:47:47.677Z,83.10
2022-08-18T18:50:30.060Z,82.90
2022-08-18T18:53:24.038Z,83.10
2022-08-18T18:56:18.745Z,83.30
2022-08-18T18:59:07.673Z,82.80
2022-08-18T19:01:42.101Z,83.20
2022-08-18T19:04:28.503Z,83.90
2022-08-18T19:07:12.408Z,83.80
2022-08-18T19:10:05.006Z,84.10
2022-08-18T19:12:58.256Z,83.90
2022-08-18T19:15:26.868Z,83.80
2022-08-18T19:18:17.046Z,84.10
2022-08-18T19:22:01.968Z,84.20
2022-08-18T19:24:16.726Z,84.20
2022-08-18T19:26:50.684Z,84.20
2022-08-18T19:29:23.497Z,84.00
2022-08-18T19:32:14.567Z,84.00
2022-08-18T19:34:51.611Z,84.50
2022-08-18T19:37:43.225Z,84.80
2022-08-18T19:40:19.772Z,85.00
2022-08-18T19:42:54.365Z,84.60
2022-08-18T19:45:36.339Z,84.70
2022-08-18T19:48:30.618Z,84.70
2022-08-18T19:51:28.463Z,85.10
2022-08-18T19:54:21.912Z,85.20
2022-08-18T19:56:54.718Z,85.10
2022-08-18T19:59:47.616Z,85.60
2022-08-18T20:02:49.090Z,85.20
2022-08-18T20:05:34.433Z,85.40
2022-08-18T20:08:25.840Z,85.60
2022-08-18T20:10:52.557Z,85.60
2022-08-18T20:13:33.017Z,85.80
2022-08-18T20:16:02.919Z,85.40
2022-08-18T20:18:37.055Z,85.20
2022-08-18T20:21:15.991Z,85.30
2022-08-18T20:24:02.398Z,85.50
2022-08-18T20:26:35.145Z,85.30
2022-08-18T20:29:02.288Z,85.30
2022-08-18T20:31:45.161Z,84.70
2022-08-18T20:34:14.778Z,84.50
2022-08-18T20:36:43.892Z,84.30
2022-08-18T20:39:34.704Z,84.50
2022-08-18T20:42:04.011Z,84.30
2022-08-18T20:44:48.868Z,84.60
2022-08-18T20:47:47.682Z,84.70
2022-08-18T20:50:33.886Z,84.90
2022-08-18T20:53:35.709Z,84.50
2022-08-18T20:56:32.517Z,84.60
2022-08-18T20:59:25.635Z,85.00
2022-08-18T21:02:01.990Z,84.50
2022-08-18T21:04:47.263Z,84.30
2022-08-18T21:07:19.205Z,84.00
2022-08-18T21:10:33.808Z,84.10
2022-08-18T21:13:02.556Z,83.90
2022-08-18T21:15:35.542Z,84.50
2022-08-18T21:18:06.415Z,83.60
2022-08-18T21:20:34.203Z,83.80
2022-08-18T21:23:05.075Z,83.80
2022-08-18T21:25:32.713Z,85.00
2022-08-18T21:28:03.798Z,84.40
2022-08-18T21:30:31.910Z,84.30
2022-08-18T21:32:58.945Z,83.80
2022-08-18T21:35:35.418Z,83.70
2022-08-18T21:38:08.506Z,83.40
2022-08-18T21:40:39.528Z,83.70
2022-08-18T21:43:08.681Z,83.30
2022-08-18T21:45:53.037Z,83.70
2022-08-18T21:48:22.425Z,82.90
2022-08-18T21:50:53.471Z,83.00
2022-08-18T21:53:32.663Z,82.90
2022-08-18T21:56:01.345Z,83.00
2022-08-18T21:58:33.815Z,82.60
2022-08-18T22:01:26.061Z,82.70
2022-08-18T22:04:00.498Z,82.40
2022-08-18T22:06:33.545Z,82.70
2022-08-18T22:09:27.714Z,82.70
2022-08-18T22:12:50.585Z,82.50
2022-08-18T22:15:35.216Z,82.80
2022-08-18T22:18:01.901Z,83.20
2022-08-18T22:20:31.560Z,83.40
2022-08-18T22:23:28.798Z,83.30
2022-08-18T22:26:17.284Z,83.40
2022-08-18T22:28:52.928Z,83.60
2022-08-18T22:31:21.447Z,83.50
2022-08-18T22:33:49.364Z,83.50
2022-08-18T22:36:26.199Z,82.80
2022-08-18T22:38:53.310Z,83.30
2022-08-18T22:41:22.064Z,83.50
2022-08-18T22:43:54.580Z,83.00
2022-08-18T22:46:24.327Z,83.40
2022-08-18T22:48:52.610Z,83.20
2022-08-18T22:51:23.668Z,83.50
2022-08-18T22:53:50.695Z,83.20
2022-08-18T22:56:27.378Z,83.00
2022-08-18T22:59:13.424Z,83.30
2022-08-18T23:01:45.067Z,83.30
2022-08-18T23:04:12.304Z,83.70
2022-08-18T23:06:39.049Z,83.50
2022-08-18T23:09:05.937Z,84.10
2022-08-18T23:11:32.692Z,84.00
2022-08-18T23:14:02.172Z,84.20
2022-08-18T23:16:31.546Z,84.00
2022-08-18T23:19:03.001Z,84.00
2022-08-18T23:21:34.519Z,84.00
2022-08-18T23:24:06.807Z,84.60
2022-08-18T23:26:34.467Z,84.40
2022-08-18T23:29:01.474Z,84.40
2022-08-18T23:31:28.188Z,84.50
2022-08-18T23:33:54.897Z,84.30
2022-08-18T23:36:21.673Z,84.40
2022-08-18T23:38:48.390Z,84.20
2022-08-18T23:41:16.312Z,84.30
2022-08-18T23:43:43.062Z,84.50
2022-08-18T23:46:18.800Z,84.20
2022-08-18T23:48:49.684Z,83.90
2022-08-18T23:51:32.444Z,83.90
2022-08-18T23:54:02.672Z,85.40
2022-08-18T23:56:31.484Z,86.90
2022-08-18T23:58:59.191Z,88.20
